Terminal Aerodrome Forecast
Issued by NWS

Home | Current Version | Previous Version | Graphics & Text | Print | Product List | Glossary On
Versions: 1 2 3 4 5 6 7 8 9 10 11 12 13 14 15
429
FTUS43 KMPX 230520
TAFAXN
TAF
KAXN 230520Z 2306/2406 28005KT P6SM FEW150
     FM231000 29010KT P6SM BKN050
     FM231300 31016G25KT P6SM BKN025 OVC050
     FM240100 31009KT P6SM SCT250=

USA.gov is the U.S. government's official web portal to all federal, state and local government web resources and services.